Terminal Aerodrome Forecast
Issued by NWS Central Illinois

Home | Current Version | Previous Version | Text Only | Print | Product List | Glossary On
Versions: 1 2 3 4 5 6 7 8 9 10 11 12 13 14 15 16 17 18 19 20 21
000
FTUS43 KILX 250534
TAFSPI
TAF
KSPI 250534Z 2506/2606 VRB04KT P6SM SKC
     FM251000 15005KT 4SM BR SCT100
     FM251400 18008KT P6SM SCT025 BKN050
     FM251900 20010G15KT P6SM SHRA VCTS SCT030CB BKN050
     FM260000 28009KT P6SM OVC050=

USA.gov is the U.S. government's official web portal to all federal, state and local government web resources and services.